Terminal Aerodrome Forecast
Issued by NWS

Home | Current Version | Previous Version | Text Only | Print | Product List | Glossary On
Versions: 1 2 3 4 5 6 7 8 9 10 11 12 13 14 15 16 17 18 19 20 21 22 23 24
773
FTUS43 KAPX 130538
TAFAPN
TAF
KAPN 130538Z 1306/1406 33013G22KT 4SM -SHSN SCT015 OVC025
      TEMPO 1306/1310 1SM -SHSN BLSN BKN015
     FM131200 33011G20KT P6SM VCSH SCT025 BKN040
     FM140000 32006KT P6SM VCSH SCT025 BKN040=

USA.gov is the U.S. government's official web portal to all federal, state and local government web resources and services.